Аэропорт: Михайловка. Барнаул

ICAO: UNBB

METAR:
2021-04-21 20:00:00
UNBB 212000Z 03004MPS 4200 -SHSN SCT004 BKN024CB M03/M04 Q1026 R06/520345 NOSIG RMK QFE747
METAR:
2021-04-21 17:00:00
TAF UNBB 211700Z 2118/2218 36003G08MPS 6000 -SHSN BKN016CB TEMPO 2118/2203 0350 FZFG BKN003 BKN010CB FM220300 03005G12MPS 8000 BKN016CB